createdAt,value
2022-10-22T00:01:55.200Z,7.66
2022-10-22T00:04:25.521Z,7.69
2022-10-22T00:06:55.771Z,7.66
2022-10-22T00:09:25.970Z,7.57
2022-10-22T00:11:56.193Z,7.56
2022-10-22T00:14:26.296Z,7.58
2022-10-22T00:17:01.119Z,7.41
2022-10-22T00:19:31.210Z,7.32
2022-10-22T00:22:05.676Z,7.27
2022-10-22T00:24:36.605Z,7.12
2022-10-22T00:27:07.919Z,7.20
2022-10-22T00:29:38.238Z,7.29
2022-10-22T00:32:10.870Z,7.36
2022-10-22T00:34:40.911Z,7.35
2022-10-22T00:37:11.081Z,7.33
2022-10-22T00:39:41.135Z,7.25
2022-10-22T00:42:15.901Z,7.36
2022-10-22T00:45:03.193Z,7.48
2022-10-22T00:47:39.458Z,7.42
2022-10-22T00:50:14.957Z,7.40
2022-10-22T00:52:45.089Z,7.40
2022-10-22T00:55:16.457Z,7.36
2022-10-22T00:57:47.291Z,7.37
2022-10-22T01:00:18.593Z,7.37
2022-10-22T01:02:52.864Z,7.32
2022-10-22T01:05:23.269Z,7.26
2022-10-22T01:07:55.737Z,7.32
2022-10-22T01:10:42.713Z,7.25
2022-10-22T01:13:25.820Z,7.32
2022-10-22T01:16:03.707Z,7.30
2022-10-22T01:18:44.713Z,7.17
2022-10-22T01:21:23.832Z,7.20
2022-10-22T01:24:18.595Z,7.18
2022-10-22T01:27:02.847Z,7.17
2022-10-22T01:29:40.691Z,7.23
2022-10-22T01:32:14.566Z,7.28
2022-10-22T01:34:58.236Z,7.32
2022-10-22T01:37:33.025Z,7.35
2022-10-22T01:40:06.383Z,7.40
2022-10-22T01:42:36.443Z,7.42
2022-10-22T01:45:14.962Z,7.42
2022-10-22T01:47:54.383Z,7.36
2022-10-22T01:51:10.498Z,7.36
2022-10-22T01:53:48.557Z,7.50
2022-10-22T01:56:36.318Z,7.51
2022-10-22T01:59:11.324Z,7.52
2022-10-22T02:01:51.062Z,7.56
2022-10-22T02:04:25.192Z,7.57
2022-10-22T02:06:58.346Z,7.59
2022-10-22T02:09:31.936Z,7.60
2022-10-22T02:12:06.750Z,7.61
2022-10-22T02:14:40.438Z,7.63
2022-10-22T02:17:19.109Z,7.63
2022-10-22T02:19:55.333Z,7.62
2022-10-22T02:22:26.602Z,7.63
2022-10-22T02:24:56.805Z,7.56
2022-10-22T02:27:33.884Z,7.52
2022-10-22T02:30:07.832Z,7.53
2022-10-22T02:32:44.674Z,7.50
2022-10-22T02:35:18.817Z,7.47
2022-10-22T02:37:49.690Z,7.46
2022-10-22T02:40:20.216Z,7.44
2022-10-22T02:42:51.270Z,7.44
2022-10-22T02:45:26.110Z,7.44
2022-10-22T02:47:59.084Z,7.41
2022-10-22T02:50:29.335Z,7.36
2022-10-22T02:52:59.555Z,7.33
2022-10-22T02:55:29.657Z,7.31
2022-10-22T02:58:00.039Z,7.35
2022-10-22T03:00:32.941Z,7.39
2022-10-22T03:03:06.584Z,7.39
2022-10-22T03:05:36.641Z,7.37
2022-10-22T03:08:07.083Z,7.35
2022-10-22T03:10:37.100Z,7.29
2022-10-22T03:13:07.450Z,7.25
2022-10-22T03:15:40.249Z,7.24
2022-10-22T03:18:13.112Z,7.20
2022-10-22T03:20:43.174Z,7.16
2022-10-22T03:23:14.215Z,7.13
2022-10-22T03:25:46.536Z,7.11
2022-10-22T03:28:18.763Z,7.08
2022-10-22T03:30:51.805Z,7.08
2022-10-22T03:33:24.467Z,7.05
2022-10-22T03:35:54.690Z,7.05
2022-10-22T03:38:24.967Z,7.04
2022-10-22T03:40:55.297Z,6.91
2022-10-22T03:43:25.512Z,6.97
2022-10-22T03:45:56.394Z,6.97
2022-10-22T03:48:29.207Z,6.93
2022-10-22T03:50:59.430Z,6.96
2022-10-22T03:53:29.454Z,6.94
2022-10-22T03:55:59.489Z,6.93
2022-10-22T03:58:29.500Z,6.93
2022-10-22T04:01:01.237Z,6.91
2022-10-22T04:03:34.561Z,6.91
2022-10-22T04:06:05.675Z,6.92
2022-10-22T04:08:36.399Z,6.91
2022-10-22T04:11:06.774Z,6.87
2022-10-22T04:13:37.059Z,6.88
2022-10-22T04:16:11.694Z,6.89
2022-10-22T04:18:45.597Z,6.91
2022-10-22T04:21:16.367Z,6.93
2022-10-22T04:23:49.237Z,6.95
2022-10-22T04:26:20.800Z,6.92
2022-10-22T04:28:52.328Z,6.96
2022-10-22T04:31:25.286Z,6.95
2022-10-22T04:33:59.759Z,6.95
2022-10-22T04:36:31.392Z,6.94
2022-10-22T04:39:02.813Z,6.95
2022-10-22T04:41:35.132Z,6.93
2022-10-22T04:44:05.911Z,6.93
2022-10-22T04:46:37.911Z,6.91
2022-10-22T04:49:10.871Z,6.91
2022-10-22T04:51:41.088Z,6.92
2022-10-22T04:54:11.170Z,6.92
2022-10-22T04:56:42.519Z,6.88
2022-10-22T04:59:15.481Z,6.88
2022-10-22T05:01:47.169Z,6.88
2022-10-22T05:04:21.207Z,6.90
2022-10-22T05:06:51.607Z,6.93
2022-10-22T05:09:23.890Z,6.92
2022-10-22T05:11:55.634Z,6.91
2022-10-22T05:14:27.932Z,6.94
2022-10-22T05:16:58.061Z,6.83
2022-10-22T05:19:32.444Z,6.89
2022-10-22T05:22:04.241Z,6.92
2022-10-22T05:24:37.632Z,6.92
2022-10-22T05:27:07.873Z,6.96
2022-10-22T05:29:38.101Z,6.98
2022-10-22T05:32:08.333Z,7.00
2022-10-22T05:34:41.346Z,7.04
2022-10-22T05:37:11.576Z,7.13
2022-10-22T05:39:41.820Z,7.24
2022-10-22T05:42:12.020Z,7.26
2022-10-22T05:44:42.205Z,7.36
2022-10-22T05:47:12.999Z,7.41
2022-10-22T05:49:45.877Z,7.40
2022-10-22T05:52:15.898Z,7.42
2022-10-22T05:54:46.397Z,7.44
2022-10-22T05:57:16.481Z,7.46
2022-10-22T05:59:46.622Z,7.50
2022-10-22T06:02:17.334Z,7.55
2022-10-22T06:04:50.927Z,7.59
2022-10-22T06:07:20.985Z,7.68
2022-10-22T06:09:51.524Z,7.72
2022-10-22T06:12:21.765Z,7.79
2022-10-22T06:14:51.914Z,7.84
2022-10-22T06:17:23.253Z,7.89
2022-10-22T06:19:56.182Z,7.92
2022-10-22T06:22:26.356Z,7.96
2022-10-22T06:24:56.733Z,7.97
2022-10-22T06:27:28.168Z,7.97
2022-10-22T06:29:58.428Z,8.00
2022-10-22T06:32:28.469Z,8.03
2022-10-22T06:35:02.724Z,8.05
2022-10-22T06:37:32.955Z,8.11
2022-10-22T06:40:03.072Z,8.17
2022-10-22T06:42:33.369Z,8.23
2022-10-22T06:45:03.549Z,8.29
2022-10-22T06:47:33.879Z,8.41
2022-10-22T06:50:07.003Z,8.49
2022-10-22T06:52:37.104Z,8.62
2022-10-22T06:55:07.912Z,8.75
2022-10-22T06:57:38.578Z,8.90
2022-10-22T07:00:11.391Z,9.12
2022-10-22T07:02:41.751Z,9.18
2022-10-22T07:05:15.917Z,9.23
2022-10-22T07:07:45.613Z,9.29
2022-10-22T07:10:15.685Z,9.39
2022-10-22T07:12:45.905Z,9.49
2022-10-22T07:15:16.651Z,9.50
2022-10-22T07:17:47.065Z,9.57
2022-10-22T07:20:21.786Z,9.57
2022-10-22T07:22:51.864Z,9.60
2022-10-22T07:25:22.181Z,9.53
2022-10-22T07:27:52.568Z,9.63
2022-10-22T07:30:25.120Z,9.79
2022-10-22T07:32:55.321Z,9.97
2022-10-22T07:35:28.180Z,10.19
2022-10-22T07:37:58.228Z,10.43
2022-10-22T07:40:28.950Z,10.54
2022-10-22T07:42:59.399Z,10.53
2022-10-22T07:45:32.003Z,10.57
2022-10-22T07:48:02.610Z,10.68
2022-10-22T07:50:36.113Z,10.65
2022-10-22T07:53:06.516Z,10.54
2022-10-22T07:55:37.922Z,10.58
2022-10-22T07:58:08.207Z,10.55
2022-10-22T08:00:41.833Z,10.58
2022-10-22T08:03:12.591Z,10.68
2022-10-22T08:05:45.686Z,10.83
2022-10-22T08:08:17.472Z,11.02
2022-10-22T08:10:48.082Z,11.22
2022-10-22T08:13:18.597Z,11.45
2022-10-22T08:15:51.500Z,11.60
2022-10-22T08:18:25.330Z,11.56
2022-10-22T08:20:59.421Z,11.77
2022-10-22T08:23:37.546Z,12.02
2022-10-22T08:26:08.894Z,12.33
2022-10-22T08:28:39.252Z,12.42
2022-10-22T08:31:12.318Z,12.74
2022-10-22T08:33:43.470Z,13.06
2022-10-22T08:36:16.804Z,13.13
2022-10-22T08:38:49.982Z,12.95
2022-10-22T08:41:22.216Z,13.02
2022-10-22T08:44:14.300Z,13.15
2022-10-22T08:47:11.511Z,13.31
2022-10-22T08:49:55.801Z,13.28
2022-10-22T08:52:29.546Z,13.34
2022-10-22T08:55:01.197Z,13.40
2022-10-22T08:57:52.175Z,13.33
2022-10-22T09:00:29.617Z,13.34
2022-10-22T09:03:13.222Z,13.25
2022-10-22T09:05:49.427Z,13.21
2022-10-22T09:08:23.402Z,13.06
2022-10-22T09:10:58.936Z,13.02
2022-10-22T09:13:29.327Z,12.96
2022-10-22T09:16:02.945Z,13.00
2022-10-22T09:18:38.281Z,12.89
2022-10-22T09:21:22.319Z,12.99
2022-10-22T09:24:08.302Z,13.16
2022-10-22T09:26:41.842Z,13.13
2022-10-22T09:29:20.878Z,13.19
2022-10-22T09:31:51.443Z,13.34
2022-10-22T09:34:24.207Z,13.52
2022-10-22T09:37:01.791Z,13.63
2022-10-22T09:39:44.648Z,13.78
2022-10-22T09:42:18.605Z,13.94
2022-10-22T09:44:56.175Z,13.92
2022-10-22T09:47:43.224Z,14.18
2022-10-22T09:50:23.737Z,14.35
2022-10-22T09:53:02.915Z,14.53
2022-10-22T09:55:36.004Z,14.68
2022-10-22T09:58:06.743Z,14.84
2022-10-22T10:00:42.521Z,15.07
2022-10-22T10:03:36.443Z,15.14
2022-10-22T10:06:07.698Z,15.34
2022-10-22T10:08:40.121Z,15.26
2022-10-22T10:11:20.330Z,15.49
2022-10-22T10:14:00.502Z,15.53
2022-10-22T10:16:48.200Z,15.59
2022-10-22T10:19:34.187Z,15.73
2022-10-22T10:22:14.763Z,15.77
2022-10-22T10:25:13.050Z,15.86
2022-10-22T10:27:51.730Z,15.89
2022-10-22T10:30:24.698Z,15.91
2022-10-22T10:33:08.636Z,15.91
2022-10-22T10:35:48.476Z,15.99
2022-10-22T10:38:36.013Z,16.24
2022-10-22T10:41:19.931Z,16.68
2022-10-22T10:43:59.035Z,16.70
2022-10-22T10:46:38.887Z,16.57
2022-10-22T10:49:13.496Z,16.81
2022-10-22T10:51:56.460Z,16.96
2022-10-22T10:54:35.957Z,16.98
2022-10-22T10:57:14.968Z,17.06
2022-10-22T11:00:03.442Z,17.33
2022-10-22T11:02:52.722Z,17.37
2022-10-22T11:05:33.989Z,17.57
2022-10-22T11:08:07.705Z,17.73
2022-10-22T11:10:42.196Z,17.78
2022-10-22T11:13:21.555Z,17.93
2022-10-22T11:16:01.753Z,18.00
2022-10-22T11:18:37.186Z,18.10
2022-10-22T11:21:17.575Z,18.13
2022-10-22T11:23:53.403Z,18.25
2022-10-22T11:26:35.157Z,18.26
2022-10-22T11:29:08.074Z,18.22
2022-10-22T11:31:52.672Z,18.36
2022-10-22T11:34:33.663Z,18.33
2022-10-22T11:37:06.409Z,18.48
2022-10-22T11:39:44.300Z,18.48
2022-10-22T11:42:21.533Z,18.56
2022-10-22T11:45:02.943Z,18.62
2022-10-22T11:47:39.454Z,18.67
2022-10-22T11:50:25.851Z,18.74
2022-10-22T11:55:49.004Z,18.88
2022-10-22T11:58:35.904Z,18.89
2022-10-22T12:01:28.266Z,18.84
2022-10-22T12:04:25.192Z,18.78
2022-10-22T12:07:02.701Z,18.75
2022-10-22T12:09:35.892Z,18.73
2022-10-22T12:12:16.502Z,18.75
2022-10-22T12:14:59.990Z,18.73
2022-10-22T12:17:31.992Z,18.82
2022-10-22T12:20:14.698Z,18.86
2022-10-22T12:22:46.677Z,18.81
2022-10-22T12:25:22.681Z,18.89
2022-10-22T12:27:57.990Z,18.83
2022-10-22T12:30:31.600Z,18.76
2022-10-22T12:33:05.311Z,18.77
2022-10-22T12:35:47.211Z,18.66
2022-10-22T12:38:20.928Z,18.57
2022-10-22T12:40:52.307Z,18.66
2022-10-22T12:43:30.658Z,18.61
2022-10-22T12:46:03.518Z,18.60
2022-10-22T12:48:41.168Z,18.62
2022-10-22T12:51:20.652Z,18.52
2022-10-22T12:53:55.009Z,18.53
2022-10-22T12:56:29.523Z,18.51
2022-10-22T12:59:03.696Z,18.36
2022-10-22T13:01:41.195Z,18.38
2022-10-22T13:04:24.066Z,18.31
2022-10-22T13:07:09.910Z,18.32
2022-10-22T13:09:46.302Z,18.23
2022-10-22T13:12:19.276Z,18.07
2022-10-22T13:14:51.678Z,18.05
2022-10-22T13:17:41.131Z,18.06
2022-10-22T13:20:22.314Z,18.13
2022-10-22T13:23:06.927Z,18.03
2022-10-22T13:25:40.164Z,17.81
2022-10-22T13:28:24.945Z,17.74
2022-10-22T13:30:59.096Z,17.52
2022-10-22T13:33:33.762Z,17.32
2022-10-22T13:36:04.920Z,17.25
2022-10-22T13:38:40.882Z,17.17
2022-10-22T13:41:29.496Z,17.11
2022-10-22T13:44:01.763Z,17.02
2022-10-22T13:46:32.928Z,17.02
2022-10-22T13:49:14.926Z,16.81
2022-10-22T13:51:47.091Z,16.72
2022-10-22T13:54:27.083Z,16.59
2022-10-22T13:56:58.490Z,16.58
2022-10-22T13:59:36.994Z,16.52
2022-10-22T14:02:16.815Z,16.43
2022-10-22T14:04:48.357Z,16.26
2022-10-22T14:07:20.337Z,16.34
2022-10-22T14:09:54.526Z,16.29
2022-10-22T14:12:25.949Z,16.22
2022-10-22T14:14:58.423Z,16.16
2022-10-22T14:17:36.185Z,16.16
2022-10-22T14:20:07.709Z,16.10
2022-10-22T14:22:38.506Z,15.90
2022-10-22T14:25:16.618Z,16.00
2022-10-22T14:27:48.741Z,15.74
2022-10-22T14:30:22.111Z,15.59
2022-10-22T14:32:57.281Z,15.50
2022-10-22T14:35:28.573Z,15.47
2022-10-22T14:37:59.526Z,15.38
2022-10-22T14:40:33.198Z,15.40
2022-10-22T14:43:04.474Z,15.28
2022-10-22T14:45:35.803Z,15.25
2022-10-22T14:48:06.909Z,15.31
2022-10-22T14:50:38.887Z,15.28
2022-10-22T14:53:09.949Z,15.22
2022-10-22T14:55:44.492Z,15.09
2022-10-22T14:58:15.247Z,15.11
2022-10-22T15:00:48.834Z,15.03
2022-10-22T15:03:20.361Z,15.03
2022-10-22T15:05:56.249Z,15.08
2022-10-22T15:08:27.965Z,15.02
2022-10-22T15:11:07.931Z,14.86
2022-10-22T15:13:39.727Z,14.82
2022-10-22T15:16:15.430Z,14.83
2022-10-22T15:18:46.497Z,14.71
2022-10-22T15:21:21.255Z,14.73
2022-10-22T15:23:54.067Z,14.67
2022-10-22T15:26:28.235Z,14.59
2022-10-22T15:28:59.980Z,14.60
2022-10-22T15:31:50.879Z,14.49
2022-10-22T15:34:26.800Z,14.51
2022-10-22T15:36:59.853Z,14.38
2022-10-22T15:39:32.979Z,14.38
2022-10-22T15:42:07.797Z,14.38
2022-10-22T15:44:40.204Z,14.26
2022-10-22T15:47:11.720Z,14.21
2022-10-22T15:49:45.156Z,14.23
2022-10-22T15:52:16.509Z,14.20
2022-10-22T15:54:47.673Z,14.21
2022-10-22T15:57:21.448Z,14.15
2022-10-22T15:59:52.362Z,14.13
2022-10-22T16:02:22.468Z,14.02
2022-10-22T16:04:52.774Z,14.03
2022-10-22T16:07:24.729Z,14.00
2022-10-22T16:09:59.082Z,13.99
2022-10-22T16:12:32.123Z,13.94
2022-10-22T16:15:02.415Z,13.92
2022-10-22T16:17:32.681Z,13.94
2022-10-22T16:20:05.188Z,13.95
2022-10-22T16:22:37.482Z,13.85
2022-10-22T16:25:11.137Z,13.84
2022-10-22T16:27:44.129Z,13.83
2022-10-22T16:30:16.020Z,13.70
2022-10-22T16:32:51.938Z,13.58
2022-10-22T16:35:22.319Z,13.48
2022-10-22T16:37:52.783Z,13.42
2022-10-22T16:40:23.138Z,13.28
2022-10-22T16:42:56.488Z,13.17
2022-10-22T16:45:29.892Z,13.13
2022-10-22T16:48:00.555Z,13.17
2022-10-22T16:50:31.367Z,13.03
2022-10-22T16:53:01.560Z,12.88
2022-10-22T16:55:31.858Z,12.81
2022-10-22T16:58:04.528Z,12.80
2022-10-22T17:00:38.844Z,12.78
2022-10-22T17:03:09.945Z,12.69
2022-10-22T17:05:40.038Z,12.66
2022-10-22T17:08:10.045Z,12.46
2022-10-22T17:10:41.626Z,12.37
2022-10-22T17:13:14.328Z,12.32
2022-10-22T17:15:47.745Z,12.28
2022-10-22T17:18:18.599Z,12.26
2022-10-22T17:20:48.789Z,12.20
2022-10-22T17:23:19.024Z,12.20
2022-10-22T17:25:49.420Z,12.17
2022-10-22T17:28:22.502Z,12.14
2022-10-22T17:30:53.472Z,12.14
2022-10-22T17:33:23.998Z,12.15
2022-10-22T17:35:54.492Z,12.12
2022-10-22T17:38:24.631Z,12.11
2022-10-22T17:40:54.764Z,12.06
2022-10-22T17:43:27.530Z,12.02
2022-10-22T17:46:06.878Z,11.97
2022-10-22T17:48:38.114Z,11.96
2022-10-22T17:51:10.341Z,11.98
2022-10-22T17:53:43.715Z,11.98
2022-10-22T17:56:16.421Z,11.92
2022-10-22T17:58:49.521Z,11.91
2022-10-22T18:01:22.740Z,12.00
2022-10-22T18:03:52.885Z,11.95
2022-10-22T18:06:24.031Z,11.91
2022-10-22T18:08:56.490Z,11.91
2022-10-22T18:11:31.643Z,11.82
2022-10-22T18:14:05.495Z,11.87
2022-10-22T18:16:36.018Z,11.87
2022-10-22T18:19:06.806Z,11.92
2022-10-22T18:21:37.542Z,11.90
2022-10-22T18:24:08.726Z,11.91
2022-10-22T18:26:41.479Z,11.87
2022-10-22T18:29:19.967Z,11.87
2022-10-22T18:31:52.659Z,11.85
2022-10-22T18:34:24.101Z,11.83
2022-10-22T18:36:56.405Z,11.83
2022-10-22T18:39:28.642Z,11.84
2022-10-22T18:42:00.096Z,11.88
2022-10-22T18:44:33.170Z,11.84
2022-10-22T18:47:03.709Z,11.79
2022-10-22T18:49:34.672Z,11.83
2022-10-22T18:52:05.928Z,11.79
2022-10-22T18:54:36.815Z,11.76
2022-10-22T18:57:07.610Z,11.79
2022-10-22T18:59:40.914Z,11.77
2022-10-22T19:02:16.240Z,11.74
2022-10-22T19:04:47.391Z,11.78
2022-10-22T19:07:17.727Z,11.75
2022-10-22T19:09:48.229Z,11.72
2022-10-22T19:12:21.762Z,11.71
2022-10-22T19:14:54.744Z,11.70
2022-10-22T19:20:05.731Z,11.70
2022-10-22T19:22:38.304Z,11.70
2022-10-22T19:25:11.982Z,11.69
2022-10-22T19:27:53.082Z,11.66
2022-10-22T19:30:26.521Z,11.60
2022-10-22T19:32:56.814Z,11.52
2022-10-22T19:35:27.239Z,11.51
2022-10-22T19:37:59.555Z,11.51
2022-10-22T19:40:29.795Z,11.47
2022-10-22T19:43:00.221Z,11.43
2022-10-22T19:45:33.483Z,11.44
2022-10-22T19:48:05.861Z,11.39
2022-10-22T19:50:36.724Z,11.34
2022-10-22T19:53:07.725Z,11.26
2022-10-22T19:55:38.095Z,11.26
2022-10-22T19:58:09.513Z,11.21
2022-10-22T20:00:43.622Z,11.27
2022-10-22T20:03:16.611Z,11.17
2022-10-22T20:05:46.844Z,11.13
2022-10-22T20:08:17.368Z,11.15
2022-10-22T20:10:51.180Z,11.07
2022-10-22T20:13:21.568Z,11.15
2022-10-22T20:16:04.124Z,11.08
2022-10-22T20:18:34.939Z,11.04
2022-10-22T20:21:08.351Z,11.10
2022-10-22T20:23:40.891Z,11.12
2022-10-22T20:26:14.061Z,11.03
2022-10-22T20:28:44.596Z,11.02
2022-10-22T20:31:21.125Z,10.99
2022-10-22T20:33:53.225Z,10.95
2022-10-22T20:36:27.034Z,10.95
2022-10-22T20:39:02.799Z,11.00
2022-10-22T20:41:34.342Z,10.95
2022-10-22T20:44:06.193Z,10.90
2022-10-22T20:46:42.740Z,10.87
2022-10-22T20:49:17.775Z,10.85
2022-10-22T20:51:49.142Z,10.87
2022-10-22T20:54:22.622Z,10.81
2022-10-22T20:56:55.063Z,10.75
2022-10-22T20:59:32.500Z,10.76
2022-10-22T21:02:19.214Z,10.73
2022-10-22T21:04:50.181Z,10.73
2022-10-22T21:07:35.231Z,10.77
2022-10-22T21:10:05.475Z,10.70
2022-10-22T21:12:43.097Z,10.67
2022-10-22T21:15:21.278Z,10.63
2022-10-22T21:18:09.264Z,10.56
2022-10-22T21:23:33.148Z,10.48
2022-10-22T21:26:04.682Z,10.52
2022-10-22T21:28:38.019Z,10.44
2022-10-22T21:31:11.645Z,10.39
2022-10-22T21:33:44.942Z,10.36
2022-10-22T21:36:22.476Z,10.32
2022-10-22T21:39:09.112Z,10.28
2022-10-22T21:41:45.038Z,10.25
2022-10-22T21:44:18.386Z,10.26
2022-10-22T21:46:53.718Z,10.29
2022-10-22T21:49:33.422Z,10.28
2022-10-22T21:52:07.671Z,10.32
2022-10-22T21:54:43.858Z,10.28
2022-10-22T21:57:14.461Z,10.32
2022-10-22T21:59:46.196Z,10.35
2022-10-22T22:02:23.121Z,10.29
2022-10-22T22:04:56.212Z,10.23
2022-10-22T22:07:26.750Z,10.25
2022-10-22T22:09:57.873Z,10.24
2022-10-22T22:12:27.939Z,10.22
2022-10-22T22:20:40.113Z,10.13
2022-10-22T22:23:17.564Z,10.11
2022-10-22T22:25:48.071Z,10.13
2022-10-22T22:28:18.383Z,10.08
2022-10-22T22:30:50.048Z,10.08
2022-10-22T22:33:20.762Z,10.06
2022-10-22T22:35:54.009Z,10.06
2022-10-22T22:38:24.786Z,10.06
2022-10-22T22:40:54.808Z,10.03
2022-10-22T22:43:25.341Z,10.07
2022-10-22T22:46:02.323Z,10.05
2022-10-22T22:48:32.924Z,10.10
2022-10-22T22:51:06.724Z,10.20
2022-10-22T22:53:38.069Z,10.37
2022-10-22T22:56:10.372Z,10.40
2022-10-22T22:58:42.961Z,10.46
2022-10-22T23:01:15.353Z,10.51
2022-10-22T23:03:51.299Z,10.58
2022-10-22T23:06:25.691Z,10.62
2022-10-22T23:08:57.643Z,10.63
2022-10-22T23:11:30.563Z,10.72
2022-10-22T23:14:02.606Z,10.78
2022-10-22T23:16:34.820Z,10.88
2022-10-22T23:19:08.815Z,10.88
2022-10-22T23:21:43.596Z,10.86
2022-10-22T23:24:17.139Z,10.92
2022-10-22T23:26:50.168Z,11.02
2022-10-22T23:29:22.503Z,11.05
2022-10-22T23:31:54.110Z,11.05
2022-10-22T23:34:26.954Z,11.14
2022-10-22T23:37:00.884Z,11.13
2022-10-22T23:39:32.594Z,11.19
2022-10-22T23:42:03.619Z,11.17
2022-10-22T23:44:33.704Z,11.20
2022-10-22T23:47:04.212Z,11.24
2022-10-22T23:49:34.616Z,11.25
2022-10-22T23:52:08.147Z,11.24
2022-10-22T23:54:52.605Z,11.33
2022-10-22T23:57:23.455Z,11.25
2022-10-22T23:59:56.292Z,11.33
